Maldives Meteorological Service

TAFS

Station TAF
VRMM
VRMM 060500Z 0606/0712 25015KT 9000 -RA SCT017TCU BKN120 TEMPO 0606/0612 25020G37KT 1000 +SHRA SCT015CB=
VRMH
VRMH 060500Z 0606/0712 25013KT 9000 -RA SCT017TCU BKN120 TEMPO 0606/0612 25020G35KT 1000 +SHRA SCT015CB=
VRMK
VRMK 060500Z 0606/0706 23008KT 9999 FEW017TCU BKN120 TEMPO 0606/0612 25015G30KT 4000 TSRA SCT016 FEW017CB=
VRMT
VRMT 060500Z 0606/0706 18010KT 9999 FEW017TCU BKN120 TEMPO 0606/0612 25015G30KT 3000 SHRA SCT016 FEW017CB=
VRMG
VRMG 060500Z 0606/0706 18010KT 9999 FEW017TCU BKN120 TEMPO 0606/0612 25015G32KT 3000 SHRA SCT016 FEW017CB=